createdAt,value
2023-05-16T00:00:12.240Z,2.07
2023-05-16T00:03:20.953Z,2.00
2023-05-16T00:06:29.127Z,1.87
2023-05-16T00:09:37.267Z,1.83
2023-05-16T00:12:50.056Z,2.13
2023-05-16T00:15:59.454Z,2.07
2023-05-16T00:19:07.790Z,2.00
2023-05-16T00:22:16.579Z,2.07
2023-05-16T00:25:24.813Z,2.30
2023-05-16T00:28:34.241Z,2.00
2023-05-16T00:31:42.546Z,2.77
2023-05-16T00:34:50.867Z,1.97
2023-05-16T00:37:59.004Z,1.70
2023-05-16T00:41:07.154Z,2.23
2023-05-16T00:44:16.646Z,1.93
2023-05-16T00:47:24.756Z,2.17
2023-05-16T00:50:35.257Z,2.03
2023-05-16T00:53:44.418Z,1.83
2023-05-16T00:56:53.102Z,2.20
2023-05-16T01:00:03.090Z,2.50
2023-05-16T01:03:11.970Z,2.27
2023-05-16T01:06:20.831Z,1.97
2023-05-16T01:09:29.549Z,2.40
2023-05-16T01:12:47.181Z,2.03
2023-05-16T01:16:10.926Z,2.10
2023-05-16T01:19:47.195Z,2.10
2023-05-16T01:23:28.888Z,2.10
2023-05-16T01:26:39.594Z,2.60
2023-05-16T01:29:48.271Z,2.37
2023-05-16T01:32:56.865Z,2.40
2023-05-16T01:36:15.032Z,2.23
2023-05-16T01:39:34.007Z,2.47
2023-05-16T01:42:49.577Z,2.70
2023-05-16T01:46:06.338Z,2.97
2023-05-16T01:49:24.297Z,2.50
2023-05-16T01:52:43.459Z,3.03
2023-05-16T01:55:54.560Z,2.50
2023-05-16T01:59:05.178Z,2.60
2023-05-16T02:02:13.873Z,2.60
2023-05-16T02:05:22.153Z,3.00
2023-05-16T02:08:31.187Z,3.13
2023-05-16T02:11:39.667Z,2.60
2023-05-16T02:14:49.548Z,3.30
2023-05-16T02:17:58.656Z,2.83
2023-05-16T02:21:07.101Z,3.00
2023-05-16T02:24:17.934Z,2.80
2023-05-16T02:27:26.322Z,2.77
2023-05-16T02:30:35.803Z,3.20
2023-05-16T02:33:43.968Z,3.00
2023-05-16T02:36:52.042Z,2.67
2023-05-16T02:40:00.194Z,2.70
2023-05-16T02:43:08.268Z,3.00
2023-05-16T02:46:27.376Z,3.10
2023-05-16T02:49:35.668Z,3.10
2023-05-16T02:52:43.734Z,2.83
2023-05-16T02:55:51.856Z,3.30
2023-05-16T02:59:01.697Z,3.23
2023-05-16T03:02:11.386Z,2.93
2023-05-16T03:05:19.788Z,3.03
2023-05-16T03:08:27.932Z,3.30
2023-05-16T03:11:40.842Z,2.97
2023-05-16T03:14:49.232Z,2.73
2023-05-16T03:18:00.131Z,3.43
2023-05-16T03:21:10.478Z,3.20
2023-05-16T03:24:18.757Z,3.07
2023-05-16T03:27:28.799Z,2.60
2023-05-16T03:30:37.518Z,3.10
2023-05-16T03:33:46.953Z,2.90
2023-05-16T03:36:55.181Z,3.47
2023-05-16T03:40:05.877Z,3.03
2023-05-16T03:43:13.974Z,3.37
2023-05-16T03:46:22.210Z,2.83
2023-05-16T03:49:31.742Z,3.43
2023-05-16T03:52:39.815Z,3.40
2023-05-16T03:55:48.847Z,3.30
2023-05-16T03:58:57.635Z,3.10
2023-05-16T04:02:06.232Z,3.20
2023-05-16T04:05:15.872Z,3.30
2023-05-16T04:08:24.149Z,4.03
2023-05-16T04:11:32.461Z,4.10
2023-05-16T04:14:40.878Z,3.67
2023-05-16T04:17:49.076Z,3.70
2023-05-16T04:20:58.541Z,3.80
2023-05-16T04:24:08.286Z,4.53
2023-05-16T04:27:16.369Z,4.10
2023-05-16T04:30:24.442Z,4.70
2023-05-16T04:33:32.577Z,3.87
2023-05-16T04:36:42.120Z,4.00
2023-05-16T04:39:50.516Z,3.57
2023-05-16T04:42:58.650Z,4.07
2023-05-16T04:46:07.562Z,3.90
2023-05-16T04:49:15.770Z,4.40
2023-05-16T04:52:25.310Z,5.07
2023-05-16T04:55:33.406Z,4.97
2023-05-16T04:58:42.911Z,4.70
2023-05-16T05:01:51.172Z,4.47
2023-05-16T05:04:59.467Z,5.20
2023-05-16T05:08:09.717Z,5.17
2023-05-16T05:11:17.868Z,5.60
2023-05-16T05:14:26.257Z,5.13
2023-05-16T05:17:34.520Z,4.90
2023-05-16T05:20:43.554Z,5.40
2023-05-16T05:23:53.183Z,5.63
2023-05-16T05:27:01.269Z,5.20
2023-05-16T05:30:11.374Z,5.43
2023-05-16T05:33:19.737Z,5.03
2023-05-16T05:36:27.958Z,5.50
2023-05-16T05:39:37.377Z,4.93
2023-05-16T05:42:47.066Z,5.40
2023-05-16T05:45:55.956Z,5.43
2023-05-16T05:49:04.532Z,5.27
2023-05-16T05:52:12.693Z,5.70
2023-05-16T05:55:22.223Z,6.03
2023-05-16T05:58:30.678Z,5.73
2023-05-16T06:01:39.636Z,6.70
2023-05-16T06:04:47.837Z,6.30
2023-05-16T06:07:56.039Z,6.33
2023-05-16T06:11:05.605Z,6.20
2023-05-16T06:14:15.157Z,6.17
2023-05-16T06:17:23.670Z,6.37
2023-05-16T06:20:31.928Z,6.17
2023-05-16T06:23:40.102Z,6.80
2023-05-16T06:26:51.026Z,6.83
2023-05-16T06:29:59.440Z,6.97
2023-05-16T06:33:07.534Z,7.67
2023-05-16T06:36:15.706Z,7.07
2023-05-16T06:39:23.793Z,7.40
2023-05-16T06:42:33.266Z,8.00
2023-05-16T06:45:41.572Z,7.50
2023-05-16T06:48:49.711Z,7.60
2023-05-16T06:51:57.941Z,7.67
2023-05-16T06:55:07.030Z,7.83
2023-05-16T06:58:16.636Z,7.43
2023-05-16T07:01:24.878Z,7.77
2023-05-16T07:04:34.439Z,8.73
2023-05-16T07:07:42.830Z,8.03
2023-05-16T07:10:51.015Z,7.67
2023-05-16T07:14:00.716Z,7.27
2023-05-16T07:17:09.212Z,7.80
2023-05-16T07:20:17.540Z,8.40
2023-05-16T07:23:25.936Z,8.37
2023-05-16T07:26:34.278Z,8.70
2023-05-16T07:29:43.774Z,9.37
2023-05-16T07:32:54.208Z,9.37
2023-05-16T07:36:15.487Z,12.97
2023-05-16T07:39:24.719Z,8.83
2023-05-16T07:42:33.131Z,8.67
2023-05-16T07:45:42.889Z,8.27
2023-05-16T07:48:51.565Z,8.30
2023-05-16T07:51:59.733Z,8.60
2023-05-16T07:55:09.770Z,8.13
2023-05-16T07:58:18.132Z,8.20
2023-05-16T08:01:27.753Z,8.60
2023-05-16T08:04:36.167Z,8.83
2023-05-16T08:07:44.376Z,8.03
2023-05-16T08:10:52.516Z,7.83
2023-05-16T08:14:00.921Z,8.93
2023-05-16T08:17:10.443Z,8.57
2023-05-16T08:20:18.704Z,8.77
2023-05-16T08:23:26.874Z,8.73
2023-05-16T08:26:35.672Z,7.73
2023-05-16T08:29:44.310Z,9.90
2023-05-16T08:32:54.156Z,9.87
2023-05-16T08:36:07.004Z,11.03
2023-05-16T08:39:15.320Z,8.57
2023-05-16T08:42:23.532Z,9.13
2023-05-16T08:45:35.361Z,9.20
2023-05-16T08:48:48.532Z,8.43
2023-05-16T08:51:59.587Z,8.37
2023-05-16T08:55:11.983Z,8.60
2023-05-16T08:58:21.790Z,9.67
2023-05-16T09:01:31.293Z,9.87
2023-05-16T09:04:44.402Z,11.97
2023-05-16T09:07:52.790Z,11.47
2023-05-16T09:11:01.755Z,10.00
2023-05-16T09:14:09.891Z,9.63
2023-05-16T09:17:20.542Z,9.77
2023-05-16T09:20:35.532Z,10.17
2023-05-16T09:23:46.516Z,9.60
2023-05-16T09:26:55.928Z,11.47
2023-05-16T09:30:04.667Z,12.07
2023-05-16T09:33:13.621Z,11.13
2023-05-16T09:36:23.155Z,11.67
2023-05-16T09:39:31.299Z,9.97
2023-05-16T09:42:40.334Z,10.87
2023-05-16T09:45:50.372Z,11.03
2023-05-16T09:48:58.759Z,10.17
2023-05-16T09:52:09.383Z,10.73
2023-05-16T09:55:18.976Z,10.43
2023-05-16T09:58:31.243Z,11.77
2023-05-16T10:01:39.776Z,11.33
2023-05-16T10:04:48.093Z,9.87
2023-05-16T10:07:58.736Z,10.10
2023-05-16T10:11:07.798Z,11.17
2023-05-16T10:14:19.988Z,11.50
2023-05-16T10:17:32.436Z,11.50
2023-05-16T10:20:45.391Z,10.63
2023-05-16T10:23:59.749Z,10.07
2023-05-16T10:27:08.416Z,11.63
2023-05-16T10:30:17.629Z,10.17
2023-05-16T10:33:26.142Z,10.70
2023-05-16T10:36:35.737Z,10.60
2023-05-16T10:39:46.322Z,12.00
2023-05-16T10:42:58.414Z,11.13
2023-05-16T10:46:10.247Z,10.90
2023-05-16T10:49:24.083Z,10.47
2023-05-16T10:52:35.359Z,10.40
2023-05-16T10:55:52.347Z,11.17
2023-05-16T10:59:13.089Z,11.47
2023-05-16T11:02:28.607Z,12.53
2023-05-16T11:05:37.145Z,11.53
2023-05-16T11:09:06.454Z,11.60
2023-05-16T11:12:16.204Z,11.37
2023-05-16T11:15:30.320Z,11.77
2023-05-16T11:18:52.040Z,11.53
2023-05-16T11:22:22.598Z,12.07
2023-05-16T11:25:41.010Z,10.77
2023-05-16T11:28:54.091Z,11.93
2023-05-16T11:32:04.371Z,11.57
2023-05-16T11:35:15.627Z,11.33
2023-05-16T11:38:23.754Z,11.67
2023-05-16T11:41:33.857Z,13.90
2023-05-16T11:44:43.368Z,12.30
2023-05-16T11:47:51.606Z,12.67
2023-05-16T11:50:59.848Z,12.83
2023-05-16T11:54:10.477Z,12.53
2023-05-16T11:57:20.330Z,13.77
2023-05-16T12:00:30.037Z,13.47
2023-05-16T12:03:39.307Z,13.07
2023-05-16T12:07:01.676Z,12.70
2023-05-16T12:10:12.159Z,13.93
2023-05-16T12:13:22.693Z,13.87
2023-05-16T12:16:32.939Z,13.57
2023-05-16T12:19:41.285Z,9.33
2023-05-16T12:22:49.434Z,14.87
2023-05-16T12:26:00.931Z,15.90
2023-05-16T12:29:11.385Z,15.70
2023-05-16T12:32:21.609Z,15.33
2023-05-16T12:35:33.450Z,16.80
2023-05-16T12:38:42.158Z,17.57
2023-05-16T12:41:50.549Z,16.17
2023-05-16T12:44:58.750Z,18.73
2023-05-16T12:48:13.969Z,19.17
2023-05-16T12:51:22.153Z,19.23
2023-05-16T12:54:30.242Z,18.47
2023-05-16T12:57:39.341Z,17.87
2023-05-16T13:00:48.611Z,11.43
2023-05-16T13:03:58.933Z,11.97
2023-05-16T13:07:07.172Z,13.70
2023-05-16T13:10:15.319Z,12.10
2023-05-16T13:13:35.566Z,11.60
2023-05-16T13:16:44.911Z,12.67
2023-05-16T13:19:54.494Z,10.17
2023-05-16T13:23:02.664Z,10.07
2023-05-16T13:26:10.823Z,9.93
2023-05-16T13:29:19.002Z,9.67
2023-05-16T13:32:27.719Z,11.00
2023-05-16T13:35:37.273Z,11.60
2023-05-16T13:38:45.373Z,11.93
2023-05-16T13:41:54.216Z,13.70
2023-05-16T13:45:02.335Z,14.03
2023-05-16T13:48:11.478Z,16.30
2023-05-16T13:51:20.983Z,15.43
2023-05-16T13:54:29.391Z,14.93
2023-05-16T13:57:37.612Z,15.93
2023-05-16T14:00:46.308Z,17.27
2023-05-16T14:03:54.684Z,16.90
2023-05-16T14:07:04.327Z,16.13
2023-05-16T14:10:12.789Z,9.70
2023-05-16T14:13:21.155Z,9.60
2023-05-16T14:16:31.105Z,8.90
2023-05-16T14:19:39.365Z,9.23
2023-05-16T14:22:48.903Z,7.93
2023-05-16T14:25:57.003Z,7.97
2023-05-16T14:29:05.212Z,7.40
2023-05-16T14:32:13.929Z,8.07
2023-05-16T14:35:22.216Z,7.63
2023-05-16T14:38:31.756Z,7.57
2023-05-16T14:41:40.130Z,7.40
2023-05-16T14:44:48.335Z,7.30
2023-05-16T14:47:56.690Z,7.83
2023-05-16T14:51:05.245Z,7.50
2023-05-16T14:54:15.018Z,7.77
2023-05-16T14:57:23.206Z,8.17
2023-05-16T15:00:32.112Z,7.83
2023-05-16T15:03:53.600Z,7.50
2023-05-16T15:07:03.210Z,7.23
2023-05-16T15:10:12.978Z,6.43
2023-05-16T15:13:21.251Z,7.30
2023-05-16T15:16:31.217Z,6.50
2023-05-16T15:19:39.485Z,6.80
2023-05-16T15:22:49.255Z,7.20
2023-05-16T15:25:59.174Z,7.63
2023-05-16T15:29:07.339Z,7.37
2023-05-16T15:32:17.095Z,7.27
2023-05-16T15:35:26.447Z,8.00
2023-05-16T15:38:36.248Z,7.30
2023-05-16T15:42:08.501Z,7.03
2023-05-16T15:45:14.481Z,7.10
2023-05-16T15:48:22.706Z,6.73
2023-05-16T15:51:30.912Z,6.63
2023-05-16T15:54:39.023Z,6.80
2023-05-16T15:57:48.595Z,6.57
2023-05-16T16:00:57.049Z,6.87
2023-05-16T16:04:05.609Z,8.03
2023-05-16T16:07:14.373Z,8.20
2023-05-16T16:10:22.749Z,6.67
2023-05-16T16:13:34.734Z,7.03
2023-05-16T16:16:43.877Z,7.20
2023-05-16T16:19:52.522Z,7.47
2023-05-16T16:23:01.820Z,7.27
2023-05-16T16:26:10.458Z,7.20
2023-05-16T16:29:21.238Z,8.23
2023-05-16T16:32:30.331Z,7.73
2023-05-16T16:35:39.563Z,6.77
2023-05-16T16:38:47.984Z,7.83
2023-05-16T16:41:56.811Z,7.57
2023-05-16T16:45:08.144Z,7.73
2023-05-16T16:48:16.501Z,7.03
2023-05-16T16:51:24.705Z,6.37
2023-05-16T16:54:32.902Z,7.30
2023-05-16T16:57:42.752Z,7.23
2023-05-16T17:00:53.054Z,6.90
2023-05-16T17:04:11.322Z,7.80
2023-05-16T17:07:19.971Z,8.23
2023-05-16T17:10:28.577Z,8.23
2023-05-16T17:13:37.771Z,9.50
2023-05-16T17:16:48.048Z,9.53
2023-05-16T17:19:57.784Z,9.50
2023-05-16T17:23:06.494Z,9.70
2023-05-16T17:26:16.641Z,10.03
2023-05-16T17:29:25.641Z,10.67
2023-05-16T17:32:36.370Z,11.10
2023-05-16T17:35:45.135Z,10.57
2023-05-16T17:38:54.081Z,10.57
2023-05-16T17:42:02.610Z,11.70
2023-05-16T17:45:14.798Z,11.97
2023-05-16T17:48:24.777Z,11.37
2023-05-16T17:51:47.752Z,12.57
2023-05-16T17:54:56.251Z,13.17
2023-05-16T17:58:06.543Z,13.43
2023-05-16T18:01:16.850Z,12.77
2023-05-16T18:04:27.686Z,13.47
2023-05-16T18:07:36.259Z,13.00
2023-05-16T18:10:52.024Z,14.70
2023-05-16T18:14:02.280Z,14.57
2023-05-16T18:17:10.696Z,14.40
2023-05-16T18:20:21.696Z,14.90
2023-05-16T18:23:31.905Z,12.73
2023-05-16T18:26:40.777Z,12.17
2023-05-16T18:29:49.164Z,11.53
2023-05-16T18:32:58.384Z,12.73
2023-05-16T18:36:11.009Z,12.80
2023-05-16T18:39:20.736Z,10.73
2023-05-16T18:42:30.086Z,11.97
2023-05-16T18:45:39.553Z,10.60
2023-05-16T18:48:48.111Z,11.60
2023-05-16T18:51:58.187Z,11.07
2023-05-16T18:55:08.272Z,11.50
2023-05-16T18:58:16.926Z,11.10
2023-05-16T19:01:25.887Z,11.93
2023-05-16T19:04:34.749Z,10.60
2023-05-16T19:07:45.828Z,11.80
2023-05-16T19:10:54.947Z,11.57
2023-05-16T19:14:03.980Z,10.73
2023-05-16T19:17:12.451Z,11.23
2023-05-16T19:20:21.669Z,12.07
2023-05-16T19:23:32.703Z,11.33
2023-05-16T19:26:41.772Z,10.77
2023-05-16T19:29:50.690Z,11.23
2023-05-16T19:32:59.860Z,9.80
2023-05-16T19:36:10.058Z,10.40
2023-05-16T19:39:20.389Z,11.57
2023-05-16T19:42:30.359Z,11.37
2023-05-16T19:45:39.523Z,11.47
2023-05-16T19:48:51.673Z,10.93
2023-05-16T19:52:02.977Z,11.57
2023-05-16T19:55:13.360Z,9.97
2023-05-16T19:58:23.224Z,7.97
2023-05-16T20:01:31.894Z,7.43
2023-05-16T20:04:40.328Z,7.03
2023-05-16T20:07:49.138Z,7.07
2023-05-16T20:10:58.833Z,6.87
2023-05-16T20:14:09.007Z,6.60
2023-05-16T20:17:18.028Z,6.97
2023-05-16T20:20:27.128Z,7.03
2023-05-16T20:23:36.288Z,6.57
2023-05-16T20:26:46.172Z,6.63
2023-05-16T20:29:56.961Z,6.73
2023-05-16T20:33:05.647Z,6.80
2023-05-16T20:36:14.408Z,6.60
2023-05-16T20:39:23.004Z,5.90
2023-05-16T20:42:33.505Z,6.17
2023-05-16T20:45:41.679Z,6.13
2023-05-16T20:48:50.547Z,6.40
2023-05-16T20:51:59.488Z,6.10
2023-05-16T20:55:11.274Z,6.10
2023-05-16T20:58:24.060Z,6.10
2023-05-16T21:01:33.397Z,5.30
2023-05-16T21:04:41.819Z,5.27
2023-05-16T21:07:50.462Z,5.63
2023-05-16T21:10:59.145Z,5.43
2023-05-16T21:14:09.158Z,5.40
2023-05-16T21:17:17.609Z,5.43
2023-05-16T21:20:28.549Z,4.77
2023-05-16T21:23:36.932Z,4.97
2023-05-16T21:26:45.725Z,4.87
2023-05-16T21:29:55.744Z,4.97
2023-05-16T21:33:04.174Z,4.77
2023-05-16T21:36:12.809Z,4.83
2023-05-16T21:39:21.332Z,3.80
2023-05-16T21:42:29.875Z,4.30
2023-05-16T21:45:40.218Z,3.57
2023-05-16T21:48:48.748Z,3.57
2023-05-16T21:51:57.424Z,3.60
2023-05-16T21:55:09.530Z,3.57
2023-05-16T21:58:19.162Z,3.07
2023-05-16T22:01:29.659Z,3.10
2023-05-16T22:04:40.971Z,3.00
2023-05-16T22:07:49.315Z,2.93
2023-05-16T22:10:59.046Z,3.03
2023-05-16T22:14:07.244Z,2.33
2023-05-16T22:17:18.043Z,2.80
2023-05-16T22:20:27.788Z,2.67
2023-05-16T22:23:36.129Z,2.13
2023-05-16T22:26:44.627Z,2.83
2023-05-16T22:29:52.810Z,2.67
2023-05-16T22:33:03.759Z,2.83
2023-05-16T22:36:11.984Z,1.97
2023-05-16T22:39:20.730Z,2.70
2023-05-16T22:42:28.976Z,2.10
2023-05-16T22:45:37.120Z,2.43
2023-05-16T22:48:46.984Z,2.37
2023-05-16T22:51:55.551Z,2.57
2023-05-16T22:55:04.314Z,2.70
2023-05-16T22:58:12.492Z,1.93
2023-05-16T23:01:21.998Z,2.33
2023-05-16T23:04:31.730Z,2.00
2023-05-16T23:07:39.935Z,2.00
2023-05-16T23:10:48.439Z,2.03
2023-05-16T23:13:56.720Z,1.90
2023-05-16T23:17:05.406Z,2.23
2023-05-16T23:20:16.034Z,1.97
2023-05-16T23:23:24.887Z,2.67
2023-05-16T23:26:33.024Z,2.20
2023-05-16T23:29:41.492Z,2.30
2023-05-16T23:32:51.463Z,1.90
2023-05-16T23:36:01.302Z,2.30
2023-05-16T23:39:09.702Z,1.87
2023-05-16T23:42:18.038Z,2.00
2023-05-16T23:45:27.996Z,2.10
2023-05-16T23:48:36.823Z,1.90
2023-05-16T23:51:57.365Z,1.90
2023-05-16T23:55:07.649Z,1.97
2023-05-16T23:58:16.120Z,1.77
